createdAt,value
2018-08-23T00:01:29.412Z,18.50
2018-08-23T00:04:13.132Z,18.50
2018-08-23T00:06:52.406Z,18.50
2018-08-23T00:09:20.861Z,18.40
2018-08-23T00:11:49.293Z,18.40
2018-08-23T00:14:18.136Z,18.30
2018-08-23T00:16:47.412Z,18.30
2018-08-23T00:19:16.494Z,18.20
2018-08-23T00:21:48.714Z,18.20
2018-08-23T00:24:22.324Z,18.10
2018-08-23T00:26:52.674Z,18.10
2018-08-23T00:29:26.417Z,18.10
2018-08-23T00:32:10.225Z,18.10
2018-08-23T00:34:39.758Z,18.00
2018-08-23T00:37:08.984Z,18.00
2018-08-23T00:39:37.487Z,18.00
2018-08-23T00:42:07.610Z,17.90
2018-08-23T00:44:52.693Z,17.90
2018-08-23T00:47:23.587Z,17.90
2018-08-23T00:49:52.177Z,17.80
2018-08-23T00:52:34.174Z,17.80
2018-08-23T00:55:14.461Z,17.80
2018-08-23T00:57:44.864Z,17.70
2018-08-23T01:00:21.282Z,17.60
2018-08-23T01:02:55.187Z,17.60
2018-08-23T01:05:28.973Z,17.60
2018-08-23T01:07:57.558Z,17.60
2018-08-23T01:10:26.644Z,17.60
2018-08-23T01:12:59.525Z,17.60
2018-08-23T01:15:28.560Z,17.50
2018-08-23T01:18:10.963Z,17.50
2018-08-23T01:20:41.113Z,17.50
2018-08-23T01:23:09.645Z,17.50
2018-08-23T01:25:41.267Z,17.50
2018-08-23T01:28:09.889Z,17.50
2018-08-23T01:30:39.292Z,17.40
2018-08-23T01:33:12.778Z,17.30
2018-08-23T01:35:42.728Z,17.20
2018-08-23T01:38:11.721Z,17.20
2018-08-23T01:40:40.281Z,17.20
2018-08-23T01:43:08.849Z,17.20
2018-08-23T01:45:37.331Z,17.20
2018-08-23T01:48:08.393Z,17.20
2018-08-23T01:50:36.881Z,17.20
2018-08-23T01:53:05.445Z,17.10
2018-08-23T01:55:34.082Z,17.10
2018-08-23T01:58:02.547Z,17.10
2018-08-23T02:00:32.206Z,17.10
2018-08-23T02:03:01.513Z,17.00
2018-08-23T02:05:29.961Z,17.00
2018-08-23T02:07:58.632Z,17.00
2018-08-23T02:10:27.176Z,17.00
2018-08-23T02:12:56.998Z,16.90
2018-08-23T02:15:26.145Z,16.90
2018-08-23T02:17:56.630Z,16.90
2018-08-23T02:20:26.250Z,16.90
2018-08-23T02:22:55.458Z,17.00
2018-08-23T02:25:24.487Z,16.90
2018-08-23T02:28:00.928Z,16.90
2018-08-23T02:30:44.965Z,16.80
2018-08-23T02:33:14.120Z,16.80
2018-08-23T02:35:54.643Z,16.80
2018-08-23T02:38:23.790Z,16.80
2018-08-23T02:40:52.341Z,16.80
2018-08-23T02:43:20.904Z,16.70
2018-08-23T02:45:52.194Z,16.80
2018-08-23T02:48:22.357Z,16.80
2018-08-23T02:50:51.486Z,16.70
2018-08-23T02:53:37.902Z,16.60
2018-08-23T02:56:09.421Z,16.60
2018-08-23T02:58:50.368Z,16.50
2018-08-23T03:01:18.946Z,16.40
2018-08-23T03:04:02.101Z,16.30
2018-08-23T03:06:36.025Z,16.20
2018-08-23T03:09:05.842Z,16.10
2018-08-23T03:11:36.776Z,16.00
2018-08-23T03:14:05.479Z,16.00
2018-08-23T03:16:46.412Z,15.90
2018-08-23T03:19:15.331Z,15.90
2018-08-23T03:21:44.417Z,15.90
2018-08-23T03:24:13.149Z,15.80
2018-08-23T03:26:41.917Z,15.80
2018-08-23T03:29:10.503Z,15.70
2018-08-23T03:31:38.971Z,15.70
2018-08-23T03:34:08.052Z,15.70
2018-08-23T03:36:36.502Z,15.70
2018-08-23T03:39:08.046Z,15.60
2018-08-23T03:41:36.616Z,15.60
2018-08-23T03:44:06.949Z,15.60
2018-08-23T03:46:47.212Z,15.60
2018-08-23T03:49:15.667Z,15.50
2018-08-23T03:51:44.158Z,15.50
2018-08-23T03:54:12.903Z,15.50
2018-08-23T03:56:45.960Z,15.60
2018-08-23T03:59:14.409Z,15.60
2018-08-23T04:01:42.869Z,15.70
2018-08-23T04:04:11.394Z,15.70
2018-08-23T04:06:39.834Z,15.80
2018-08-23T04:09:09.653Z,15.80
2018-08-23T04:11:38.122Z,15.70
2018-08-23T04:14:06.792Z,15.60
2018-08-23T04:16:35.241Z,15.60
2018-08-23T04:19:03.734Z,15.70
2018-08-23T04:21:32.193Z,15.70
2018-08-23T04:24:00.733Z,15.70
2018-08-23T04:26:29.233Z,15.70
2018-08-23T04:28:57.724Z,15.80
2018-08-23T04:31:26.321Z,15.70
2018-08-23T04:33:54.881Z,15.70
2018-08-23T04:36:32.651Z,15.80
2018-08-23T04:39:05.999Z,15.80
2018-08-23T04:41:34.470Z,15.80
2018-08-23T04:44:06.981Z,15.80
2018-08-23T04:46:35.417Z,15.90
2018-08-23T04:49:06.466Z,15.90
2018-08-23T04:51:36.168Z,15.90
2018-08-23T04:54:05.444Z,15.90
2018-08-23T04:56:34.257Z,15.90
2018-08-23T04:59:02.809Z,16.00
2018-08-23T05:01:31.256Z,16.10
2018-08-23T05:03:59.754Z,16.20
2018-08-23T05:06:28.270Z,16.20
2018-08-23T05:08:57.219Z,16.10
2018-08-23T05:11:25.641Z,16.10
2018-08-23T05:13:54.091Z,16.20
2018-08-23T05:16:22.530Z,16.20
2018-08-23T05:18:50.988Z,16.30
2018-08-23T05:21:19.449Z,16.40
2018-08-23T05:23:47.885Z,16.50
2018-08-23T05:26:17.712Z,16.60
2018-08-23T05:28:58.812Z,16.70
2018-08-23T05:31:28.513Z,16.70
2018-08-23T05:33:59.430Z,16.80
2018-08-23T05:36:27.893Z,16.90
2018-08-23T05:38:56.324Z,17.00
2018-08-23T05:41:24.771Z,17.10
2018-08-23T05:44:13.296Z,17.20
2018-08-23T05:46:48.543Z,17.30
2018-08-23T05:49:16.988Z,17.40
2018-08-23T05:51:45.756Z,17.60
2018-08-23T05:54:14.177Z,17.70
2018-08-23T05:56:42.648Z,17.80
2018-08-23T05:59:15.052Z,17.70
2018-08-23T06:01:44.270Z,17.70
2018-08-23T06:04:12.943Z,17.80
2018-08-23T06:06:41.756Z,17.80
2018-08-23T06:09:13.472Z,18.00
2018-08-23T06:11:42.190Z,18.10
2018-08-23T06:14:11.011Z,18.30
2018-08-23T06:16:48.748Z,18.60
2018-08-23T06:19:17.172Z,18.90
2018-08-23T06:21:45.602Z,19.20
2018-08-23T06:24:14.053Z,20.40
2018-08-23T06:26:48.048Z,21.10
2018-08-23T06:29:26.313Z,20.60
2018-08-23T06:32:03.087Z,20.20
2018-08-23T06:34:41.857Z,19.80
2018-08-23T06:37:10.300Z,20.10
2018-08-23T06:39:41.192Z,20.10
2018-08-23T06:42:10.516Z,20.20
2018-08-23T06:44:44.577Z,20.40
2018-08-23T06:47:14.645Z,20.60
2018-08-23T06:49:44.181Z,20.90
2018-08-23T06:52:49.501Z,21.00
2018-08-23T06:55:23.389Z,21.30
2018-08-23T06:57:56.037Z,21.90
2018-08-23T07:00:25.353Z,22.10
2018-08-23T07:02:53.901Z,22.00
2018-08-23T07:05:22.710Z,22.30
2018-08-23T07:07:51.333Z,23.30
2018-08-23T07:10:19.784Z,23.00
2018-08-23T07:12:49.204Z,22.70
2018-08-23T07:15:17.641Z,22.70
2018-08-23T07:17:46.191Z,23.00
2018-08-23T07:20:15.776Z,23.00
2018-08-23T07:22:44.225Z,23.60
2018-08-23T07:25:16.234Z,23.40
2018-08-23T07:27:44.689Z,24.00
2018-08-23T07:30:19.002Z,23.80
2018-08-23T07:32:49.037Z,24.40
2018-08-23T07:35:18.878Z,23.80
2018-08-23T07:37:49.884Z,24.50
2018-08-23T07:40:19.804Z,24.80
2018-08-23T07:42:49.620Z,24.50
2018-08-23T07:45:18.079Z,24.70
2018-08-23T07:47:51.075Z,24.80
2018-08-23T07:50:19.867Z,24.80
2018-08-23T07:52:50.659Z,24.70
2018-08-23T07:55:19.108Z,24.60
2018-08-23T07:57:47.845Z,25.20
2018-08-23T08:00:26.672Z,24.70
2018-08-23T08:02:55.191Z,24.70
2018-08-23T08:05:28.233Z,25.30
2018-08-23T08:07:56.719Z,24.90
2018-08-23T08:10:29.369Z,25.20
2018-08-23T08:12:57.907Z,25.50
2018-08-23T08:15:26.369Z,25.50
2018-08-23T08:17:54.837Z,25.20
2018-08-23T08:20:23.277Z,25.40
2018-08-23T08:22:51.728Z,25.60
2018-08-23T08:25:20.220Z,25.60
2018-08-23T08:27:49.787Z,25.80
2018-08-23T08:30:22.889Z,25.60
2018-08-23T08:32:51.333Z,25.70
2018-08-23T08:35:20.859Z,25.30
2018-08-23T08:37:50.155Z,25.70
2018-08-23T08:40:22.617Z,26.10
2018-08-23T08:42:51.046Z,25.80
2018-08-23T08:45:19.560Z,25.80
2018-08-23T08:47:48.264Z,26.40
2018-08-23T08:50:17.322Z,26.20
2018-08-23T08:52:46.206Z,26.40
2018-08-23T08:55:16.775Z,26.00
2018-08-23T08:57:47.045Z,26.10
2018-08-23T09:00:15.529Z,26.20
2018-08-23T09:02:44.045Z,26.40
2018-08-23T09:05:12.482Z,26.50
2018-08-23T09:07:43.081Z,26.60
2018-08-23T09:10:11.504Z,27.10
2018-08-23T09:12:45.352Z,26.60
2018-08-23T09:15:13.781Z,26.30
2018-08-23T09:17:44.364Z,26.20
2018-08-23T09:20:18.980Z,26.40
2018-08-23T09:22:52.724Z,26.50
2018-08-23T09:25:33.550Z,26.80
2018-08-23T09:28:02.040Z,26.40
2018-08-23T09:30:31.849Z,26.30
2018-08-23T09:33:05.669Z,26.80
2018-08-23T09:35:34.529Z,26.90
2018-08-23T09:38:10.281Z,26.70
2018-08-23T09:40:38.732Z,27.10
2018-08-23T09:43:07.367Z,27.00
2018-08-23T09:45:36.657Z,27.70
2018-08-23T09:48:05.380Z,27.50
2018-08-23T09:50:33.879Z,27.00
2018-08-23T09:53:04.546Z,27.10
2018-08-23T09:55:33.861Z,27.10
2018-08-23T09:58:02.384Z,27.30
2018-08-23T10:00:36.156Z,27.30
2018-08-23T10:03:10.077Z,27.30
2018-08-23T10:05:48.053Z,27.20
2018-08-23T10:08:22.506Z,27.00
2018-08-23T10:10:56.241Z,26.90
2018-08-23T10:13:29.964Z,27.30
2018-08-23T10:16:03.917Z,27.40
2018-08-23T10:18:37.601Z,27.90
2018-08-23T10:21:06.105Z,27.80
2018-08-23T10:23:34.527Z,27.40
2018-08-23T10:26:39.037Z,27.60
2018-08-23T10:29:07.525Z,27.60
2018-08-23T10:31:35.963Z,27.40
2018-08-23T10:34:11.126Z,27.80
2018-08-23T10:36:39.565Z,27.90
2018-08-23T10:39:11.521Z,28.10
2018-08-23T10:41:39.956Z,28.50
2018-08-23T10:44:08.466Z,28.10
2018-08-23T10:46:42.149Z,28.30
2018-08-23T10:49:10.894Z,28.70
2018-08-23T10:51:39.462Z,28.60
2018-08-23T10:54:07.999Z,27.70
2018-08-23T10:56:37.305Z,28.40
2018-08-23T10:59:06.625Z,28.40
2018-08-23T11:01:35.082Z,28.00
2018-08-23T11:04:05.598Z,28.40
2018-08-23T11:06:34.889Z,28.40
2018-08-23T11:09:08.755Z,28.50
2018-08-23T11:11:38.116Z,28.10
2018-08-23T11:14:12.295Z,28.50
2018-08-23T11:16:46.291Z,28.30
2018-08-23T11:19:20.028Z,28.60
2018-08-23T11:21:48.658Z,28.50
2018-08-23T11:24:17.150Z,29.10
2018-08-23T11:26:45.603Z,29.00
2018-08-23T11:29:14.171Z,28.40
2018-08-23T11:31:42.589Z,27.40
2018-08-23T11:34:11.021Z,28.50
2018-08-23T11:36:39.646Z,28.70
2018-08-23T11:39:09.049Z,28.90
2018-08-23T11:41:37.492Z,28.70
2018-08-23T11:44:05.961Z,28.70
2018-08-23T11:46:34.397Z,28.70
2018-08-23T11:49:02.809Z,28.70
2018-08-23T11:51:32.136Z,29.10
2018-08-23T11:54:00.619Z,28.50
2018-08-23T11:56:29.126Z,28.50
2018-08-23T11:58:57.668Z,28.80
2018-08-23T12:01:26.117Z,27.90
2018-08-23T12:03:54.609Z,27.70
2018-08-23T12:06:23.147Z,27.90
2018-08-23T12:08:51.547Z,27.00
2018-08-23T12:11:20.010Z,27.80
2018-08-23T12:13:49.961Z,27.80
2018-08-23T12:16:18.642Z,28.40
2018-08-23T12:18:47.395Z,28.60
2018-08-23T12:21:15.961Z,28.50
2018-08-23T12:23:44.385Z,28.60
2018-08-23T12:26:13.995Z,28.50
2018-08-23T12:28:47.913Z,28.10
2018-08-23T12:31:16.361Z,27.70
2018-08-23T12:33:45.044Z,28.50
2018-08-23T12:36:13.544Z,29.60
2018-08-23T12:38:47.157Z,29.30
2018-08-23T12:41:20.922Z,28.00
2018-08-23T12:43:52.374Z,28.20
2018-08-23T12:46:20.898Z,28.20
2018-08-23T12:48:53.571Z,27.90
2018-08-23T12:51:22.018Z,28.30
2018-08-23T12:53:50.504Z,28.80
2018-08-23T12:56:18.957Z,28.10
2018-08-23T12:58:47.933Z,27.50
2018-08-23T13:01:16.373Z,27.70
2018-08-23T13:03:44.816Z,27.70
2018-08-23T13:06:13.259Z,28.40
2018-08-23T13:08:41.697Z,28.40
2018-08-23T13:11:10.159Z,28.20
2018-08-23T13:13:38.584Z,28.50
2018-08-23T13:16:07.075Z,28.40
2018-08-23T13:18:35.545Z,28.80
2018-08-23T13:21:03.989Z,28.60
2018-08-23T13:23:32.453Z,29.10
2018-08-23T13:26:00.957Z,29.00
2018-08-23T13:28:29.380Z,29.00
2018-08-23T13:30:57.855Z,28.50
2018-08-23T13:33:27.140Z,28.30
2018-08-23T13:35:56.484Z,28.50
2018-08-23T13:38:24.966Z,29.10
2018-08-23T13:40:53.417Z,28.50
2018-08-23T13:43:22.032Z,28.10
2018-08-23T13:45:50.768Z,28.10
2018-08-23T13:48:19.284Z,28.30
2018-08-23T13:50:47.727Z,28.20
2018-08-23T13:53:16.181Z,28.00
2018-08-23T13:55:44.633Z,28.40
2018-08-23T13:58:13.129Z,28.90
2018-08-23T14:00:42.236Z,28.80
2018-08-23T14:03:11.456Z,29.30
2018-08-23T14:05:41.154Z,28.70
2018-08-23T14:08:11.305Z,28.30
2018-08-23T14:10:40.729Z,28.70
2018-08-23T14:13:10.685Z,27.90
2018-08-23T14:16:14.748Z,28.30
2018-08-23T14:18:43.519Z,27.70
2018-08-23T14:21:12.067Z,27.60
2018-08-23T14:23:40.585Z,28.00
2018-08-23T14:26:09.020Z,28.20
2018-08-23T14:28:37.626Z,28.20
2018-08-23T14:31:06.085Z,27.70
2018-08-23T14:33:34.528Z,28.50
2018-08-23T14:36:02.953Z,28.00
2018-08-23T14:38:31.554Z,27.70
2018-08-23T14:41:00.101Z,27.20
2018-08-23T14:43:28.548Z,27.10
2018-08-23T14:46:02.233Z,26.80
2018-08-23T14:48:30.663Z,26.70
2018-08-23T14:50:59.108Z,26.50
2018-08-23T14:53:28.764Z,26.60
2018-08-23T14:56:02.550Z,26.30
2018-08-23T14:58:31.562Z,26.40
2018-08-23T15:01:00.049Z,26.40
2018-08-23T15:03:29.000Z,26.50
2018-08-23T15:05:57.447Z,26.60
2018-08-23T15:08:26.133Z,26.60
2018-08-23T15:10:54.598Z,26.40
2018-08-23T15:13:23.049Z,26.60
2018-08-23T15:15:52.869Z,25.90
2018-08-23T15:18:22.364Z,26.10
2018-08-23T15:20:51.499Z,26.30
2018-08-23T15:23:19.954Z,25.80
2018-08-23T15:25:48.468Z,26.20
2018-08-23T15:28:17.578Z,26.20
2018-08-23T15:30:46.614Z,25.80
2018-08-23T15:33:15.183Z,25.40
2018-08-23T15:35:43.626Z,25.50
2018-08-23T15:38:12.124Z,25.50
2018-08-23T15:40:40.556Z,25.70
2018-08-23T15:43:09.084Z,25.80
2018-08-23T15:45:37.505Z,25.30
2018-08-23T15:48:06.110Z,25.30
2018-08-23T15:50:34.508Z,25.60
2018-08-23T15:53:02.981Z,25.40
2018-08-23T15:55:31.739Z,25.60
2018-08-23T15:57:59.912Z,25.60
2018-08-23T16:00:32.625Z,25.40
2018-08-23T16:03:01.085Z,25.10
2018-08-23T16:05:29.521Z,24.70
2018-08-23T16:07:57.953Z,25.00
2018-08-23T16:10:26.471Z,25.30
2018-08-23T16:12:54.864Z,25.10
2018-08-23T16:15:24.475Z,25.00
2018-08-23T16:17:58.249Z,25.10
2018-08-23T16:20:32.063Z,24.90
2018-08-23T16:23:00.510Z,25.30
2018-08-23T16:25:29.042Z,24.80
2018-08-23T16:27:57.464Z,24.70
2018-08-23T16:30:26.253Z,24.60
2018-08-23T16:32:54.685Z,24.50
2018-08-23T16:35:23.105Z,24.50
2018-08-23T16:37:51.639Z,24.50
2018-08-23T16:40:25.542Z,24.40
2018-08-23T16:42:53.985Z,24.50
2018-08-23T16:45:22.404Z,24.80
2018-08-23T16:47:50.877Z,24.90
2018-08-23T16:50:19.323Z,24.70
2018-08-23T16:52:47.829Z,24.20
2018-08-23T16:55:16.263Z,24.20
2018-08-23T16:57:44.813Z,24.10
2018-08-23T17:00:13.273Z,24.00
2018-08-23T17:02:41.694Z,24.00
2018-08-23T17:05:10.149Z,23.90
2018-08-23T17:07:38.575Z,23.80
2018-08-23T17:10:07.152Z,23.60
2018-08-23T17:12:35.549Z,23.80
2018-08-23T17:15:04.132Z,23.80
2018-08-23T17:17:33.952Z,23.90
2018-08-23T17:20:02.561Z,23.70
2018-08-23T17:22:31.212Z,23.60
2018-08-23T17:24:59.788Z,23.70
2018-08-23T17:27:28.149Z,23.40
2018-08-23T17:29:56.589Z,23.50
2018-08-23T17:32:25.009Z,23.50
2018-08-23T17:34:53.432Z,23.60
2018-08-23T17:37:21.864Z,23.50
2018-08-23T17:39:50.649Z,23.40
2018-08-23T17:42:19.139Z,23.30
2018-08-23T17:44:47.620Z,23.20
2018-08-23T17:47:16.101Z,23.20
2018-08-23T17:49:44.525Z,23.20
2018-08-23T17:52:12.973Z,23.30
2018-08-23T17:54:41.393Z,23.10
2018-08-23T17:57:09.844Z,23.20
2018-08-23T17:59:38.316Z,23.10
2018-08-23T18:02:06.789Z,23.10
2018-08-23T18:04:35.260Z,23.10
2018-08-23T18:07:03.737Z,23.20
2018-08-23T18:09:32.160Z,23.10
2018-08-23T18:12:00.613Z,22.90
2018-08-23T18:14:29.146Z,22.80
2018-08-23T18:16:58.638Z,22.70
2018-08-23T18:19:27.777Z,22.70
2018-08-23T18:21:56.311Z,22.60
2018-08-23T18:24:25.061Z,22.60
2018-08-23T18:26:53.501Z,22.60
2018-08-23T18:29:21.929Z,22.60
2018-08-23T18:31:50.406Z,22.70
2018-08-23T18:34:18.853Z,22.60
2018-08-23T18:36:47.327Z,22.50
2018-08-23T18:39:16.689Z,22.30
2018-08-23T18:41:45.122Z,22.20
2018-08-23T18:44:13.584Z,22.20
2018-08-23T18:46:43.055Z,22.10
2018-08-23T18:49:11.514Z,22.10
2018-08-23T18:51:39.953Z,22.00
2018-08-23T18:54:08.409Z,21.90
2018-08-23T18:56:36.849Z,21.90
2018-08-23T18:59:05.364Z,21.90
2018-08-23T19:01:33.803Z,21.80
2018-08-23T19:04:02.225Z,21.70
2018-08-23T19:06:35.267Z,21.70
2018-08-23T19:09:06.229Z,21.60
2018-08-23T19:11:34.736Z,21.60
2018-08-23T19:14:03.204Z,21.60
2018-08-23T19:16:36.952Z,21.60
2018-08-23T19:19:05.975Z,21.50
2018-08-23T19:21:34.379Z,21.40
2018-08-23T19:24:02.825Z,21.40
2018-08-23T19:26:31.256Z,21.40
2018-08-23T19:28:59.872Z,21.30
2018-08-23T19:31:28.402Z,21.20
2018-08-23T19:33:56.797Z,21.20
2018-08-23T19:36:25.265Z,21.10
2018-08-23T19:38:53.692Z,21.10
2018-08-23T19:41:22.133Z,21.00
2018-08-23T19:43:50.613Z,21.00
2018-08-23T19:46:24.324Z,21.00
2018-08-23T19:48:58.088Z,21.00
2018-08-23T19:51:26.552Z,21.10
2018-08-23T19:53:55.025Z,21.30
2018-08-23T19:56:23.449Z,21.30
2018-08-23T19:58:52.765Z,21.30
2018-08-23T20:01:21.817Z,21.20
2018-08-23T20:03:50.747Z,21.20
2018-08-23T20:06:20.602Z,21.10
2018-08-23T20:08:49.888Z,21.10
2018-08-23T20:11:19.654Z,21.20
2018-08-23T20:13:49.529Z,21.10
2018-08-23T20:16:18.949Z,21.10
2018-08-23T20:18:48.304Z,21.20
2018-08-23T20:21:18.053Z,21.20
2018-08-23T20:23:47.300Z,21.20
2018-08-23T20:26:16.967Z,21.20
2018-08-23T20:28:45.647Z,21.10
2018-08-23T20:31:14.936Z,21.20
2018-08-23T20:33:43.494Z,21.30
2018-08-23T20:36:13.225Z,21.30
2018-08-23T20:38:42.114Z,21.40
2018-08-23T20:41:10.939Z,21.40
2018-08-23T20:43:40.143Z,21.40
2018-08-23T20:46:09.577Z,21.40
2018-08-23T20:48:39.540Z,21.40
2018-08-23T20:51:09.259Z,21.40
2018-08-23T20:53:37.741Z,21.40
2018-08-23T20:56:06.193Z,21.30
2018-08-23T20:58:34.748Z,21.30
2018-08-23T21:01:03.638Z,21.30
2018-08-23T21:03:32.056Z,21.30
2018-08-23T21:06:00.493Z,21.30
2018-08-23T21:08:28.953Z,21.20
2018-08-23T21:10:57.377Z,21.20
2018-08-23T21:13:25.997Z,21.30
2018-08-23T21:15:54.485Z,21.30
2018-08-23T21:18:22.905Z,21.20
2018-08-23T21:20:51.361Z,21.10
2018-08-23T21:23:19.781Z,21.10
2018-08-23T21:25:48.225Z,21.10
2018-08-23T21:28:16.689Z,21.10
2018-08-23T21:30:45.128Z,21.00
2018-08-23T21:33:14.461Z,20.90
2018-08-23T21:35:43.004Z,20.70
2018-08-23T21:38:11.613Z,20.60
2018-08-23T21:40:40.327Z,20.60
2018-08-23T21:43:09.031Z,20.60
2018-08-23T21:45:37.477Z,20.60
2018-08-23T21:48:05.932Z,20.50
2018-08-23T21:50:34.413Z,20.40
2018-08-23T21:53:03.321Z,20.50
2018-08-23T21:55:38.172Z,20.40
2018-08-23T21:58:08.635Z,20.50
2018-08-23T22:00:44.832Z,20.50
2018-08-23T22:03:14.029Z,20.40
2018-08-23T22:05:42.937Z,20.40
2018-08-23T22:08:11.501Z,20.40
2018-08-23T22:10:39.951Z,20.50
2018-08-23T22:13:08.409Z,20.40
2018-08-23T22:15:42.293Z,20.50
2018-08-23T22:18:10.722Z,20.60
2018-08-23T22:20:39.154Z,20.50
2018-08-23T22:23:07.593Z,20.50
2018-08-23T22:25:36.053Z,20.60
2018-08-23T22:28:04.652Z,20.60
2018-08-23T22:30:33.085Z,20.60
2018-08-23T22:33:01.493Z,20.60
2018-08-23T22:35:30.324Z,20.60
2018-08-23T22:37:58.765Z,20.60
2018-08-23T22:40:27.192Z,20.60
2018-08-23T22:42:55.648Z,20.70
2018-08-23T22:45:24.057Z,20.70
2018-08-23T22:47:52.509Z,20.70
2018-08-23T22:50:21.126Z,20.70
2018-08-23T22:52:49.585Z,20.70
2018-08-23T22:55:18.010Z,20.70
2018-08-23T22:57:46.536Z,20.70
2018-08-23T23:00:14.985Z,20.70
2018-08-23T23:02:43.861Z,20.60
2018-08-23T23:05:12.347Z,20.20
2018-08-23T23:07:40.804Z,19.50
2018-08-23T23:10:09.299Z,19.10
2018-08-23T23:12:37.753Z,18.70
2018-08-23T23:15:07.285Z,18.40
2018-08-23T23:17:35.717Z,18.00
2018-08-23T23:20:04.205Z,18.10
2018-08-23T23:22:32.617Z,17.90
2018-08-23T23:25:01.661Z,17.80
2018-08-23T23:27:30.532Z,17.50
2018-08-23T23:29:59.557Z,17.40
2018-08-23T23:32:28.113Z,17.40
2018-08-23T23:34:56.585Z,17.40
2018-08-23T23:37:25.496Z,17.50
2018-08-23T23:39:53.967Z,17.50
2018-08-23T23:42:22.429Z,17.50
2018-08-23T23:44:50.849Z,17.30
2018-08-23T23:47:19.304Z,17.40
2018-08-23T23:49:47.793Z,17.20
2018-08-23T23:52:16.233Z,17.40
2018-08-23T23:54:44.648Z,17.30
2018-08-23T23:57:13.118Z,17.40
2018-08-23T23:59:41.565Z,17.40
